sensor_id;sensor_type;location;lat;lon;timestamp;temperature;humidity
4207;DHT22;2117;47.972;7.830;2022-08-03T03:31:06;18.50;99.90
4207;DHT22;2117;47.972;7.830;2022-08-03T03:33:33;18.40;99.90
4207;DHT22;2117;47.972;7.830;2022-08-03T03:35:59;18.40;99.90
4207;DHT22;2117;47.972;7.830;2022-08-03T03:38:25;18.40;99.90
4207;DHT22;2117;47.972;7.830;2022-08-03T03:40:51;18.40;99.90
4207;DHT22;2117;47.972;7.830;2022-08-03T03:43:18;18.40;99.90
4207;DHT22;2117;47.972;7.830;2022-08-03T03:45:44;18.30;99.90
4207;DHT22;2117;47.972;7.830;2022-08-03T03:48:11;18.30;99.90
4207;DHT22;2117;47.972;7.830;2022-08-03T03:50:37;18.30;99.90
4207;DHT22;2117;47.972;7.830;2022-08-03T03:53:08;18.30;99.90
4207;DHT22;2117;47.972;7.830;2022-08-03T03:55:34;18.20;99.90
4207;DHT22;2117;47.972;7.830;2022-08-03T03:58:00;18.20;99.90
4207;DHT22;2117;47.972;7.830;2022-08-03T04:00:26;18.20;99.90
4207;DHT22;2117;47.972;7.830;2022-08-03T04:02:51;18.20;99.90
4207;DHT22;2117;47.972;7.830;2022-08-03T04:05:17;18.10;99.90
4207;DHT22;2117;47.972;7.830;2022-08-03T04:08:05;18.10;99.90
4207;DHT22;2117;47.972;7.830;2022-08-03T04:13:35;18.10;99.90
4207;DHT22;2117;47.972;7.830;2022-08-03T04:16:02;18.10;99.90
4207;DHT22;2117;47.972;7.830;2022-08-03T04:18:29;18.10;99.90
4207;DHT22;2117;47.972;7.830;2022-08-03T04:20:58;18.10;99.90
4207;DHT22;2117;47.972;7.830;2022-08-03T04:23:26;18.10;99.90
4207;DHT22;2117;47.972;7.830;2022-08-03T04:25:52;18.10;99.90
4207;DHT22;2117;47.972;7.830;2022-08-03T04:28:21;18.00;99.90
4207;DHT22;2117;47.972;7.830;2022-08-03T04:30:48;18.00;99.90
4207;DHT22;2117;47.972;7.830;2022-08-03T04:33:16;18.00;99.90
4207;DHT22;2117;47.972;7.830;2022-08-03T04:35:43;18.20;99.90
4207;DHT22;2117;47.972;7.830;2022-08-03T04:38:13;18.20;99.90
4207;DHT22;2117;47.972;7.830;2022-08-03T04:40:41;18.40;99.90
4207;DHT22;2117;47.972;7.830;2022-08-03T04:43:09;18.50;99.90
4207;DHT22;2117;47.972;7.830;2022-08-03T04:45:36;18.80;99.90
4207;DHT22;2117;47.972;7.830;2022-08-03T04:48:03;18.80;99.90
4207;DHT22;2117;47.972;7.830;2022-08-03T04:50:29;18.90;99.90
4207;DHT22;2117;47.972;7.830;2022-08-03T04:52:55;18.90;99.90
4207;DHT22;2117;47.972;7.830;2022-08-03T04:55:25;19.00;99.90
4207;DHT22;2117;47.972;7.830;2022-08-03T04:57:51;19.10;99.90
4207;DHT22;2117;47.972;7.830;2022-08-03T05:00:17;19.20;99.90
4207;DHT22;2117;47.972;7.830;2022-08-03T05:02:43;19.20;99.90
4207;DHT22;2117;47.972;7.830;2022-08-03T05:05:08;19.20;99.90
4207;DHT22;2117;47.972;7.830;2022-08-03T05:07:34;19.20;99.90
4207;DHT22;2117;47.972;7.830;2022-08-03T05:10:00;19.20;99.90
4207;DHT22;2117;47.972;7.830;2022-08-03T05:12:25;19.20;99.90
4207;DHT22;2117;47.972;7.830;2022-08-03T05:14:51;19.20;99.90
4207;DHT22;2117;47.972;7.830;2022-08-03T05:17:16;19.20;99.90
4207;DHT22;2117;47.972;7.830;2022-08-03T05:19:43;19.20;99.90
4207;DHT22;2117;47.972;7.830;2022-08-03T05:22:09;19.30;99.90
4207;DHT22;2117;47.972;7.830;2022-08-03T05:24:34;19.40;99.90
4207;DHT22;2117;47.972;7.830;2022-08-03T05:27:00;19.50;99.90
4207;DHT22;2117;47.972;7.830;2022-08-03T05:29:25;19.60;99.90
4207;DHT22;2117;47.972;7.830;2022-08-03T05:31:51;19.70;99.90
4207;DHT22;2117;47.972;7.830;2022-08-03T05:34:17;19.80;99.90
4207;DHT22;2117;47.972;7.830;2022-08-03T05:36:42;19.80;99.90
4207;DHT22;2117;47.972;7.830;2022-08-03T05:39:08;19.80;99.90
4207;DHT22;2117;47.972;7.830;2022-08-03T05:41:33;19.90;99.90
4207;DHT22;2117;47.972;7.830;2022-08-03T05:43:59;20.00;99.90
4207;DHT22;2117;47.972;7.830;2022-08-03T05:46:25;20.10;99.90
4207;DHT22;2117;47.972;7.830;2022-08-03T05:48:51;20.10;99.90
4207;DHT22;2117;47.972;7.830;2022-08-03T05:51:16;20.20;99.90
4207;DHT22;2117;47.972;7.830;2022-08-03T05:53:42;20.20;99.90
4207;DHT22;2117;47.972;7.830;2022-08-03T05:56:08;20.30;99.90
4207;DHT22;2117;47.972;7.830;2022-08-03T05:58:34;20.30;99.90
4207;DHT22;2117;47.972;7.830;2022-08-03T06:01:00;20.40;99.90
4207;DHT22;2117;47.972;7.830;2022-08-03T06:03:25;20.40;99.90
4207;DHT22;2117;47.972;7.830;2022-08-03T06:05:53;20.50;99.90
4207;DHT22;2117;47.972;7.830;2022-08-03T06:08:20;20.60;99.90
4207;DHT22;2117;47.972;7.830;2022-08-03T06:10:45;20.60;99.90
4207;DHT22;2117;47.972;7.830;2022-08-03T06:13:11;20.70;99.90
4207;DHT22;2117;47.972;7.830;2022-08-03T06:15:36;20.80;99.90
4207;DHT22;2117;47.972;7.830;2022-08-03T06:18:02;20.80;99.90
4207;DHT22;2117;47.972;7.830;2022-08-03T06:20:28;20.90;99.90
4207;DHT22;2117;47.972;7.830;2022-08-03T06:22:54;21.00;99.90
4207;DHT22;2117;47.972;7.830;2022-08-03T06:25:20;21.10;99.90
4207;DHT22;2117;47.972;7.830;2022-08-03T06:27:46;21.10;99.90
4207;DHT22;2117;47.972;7.830;2022-08-03T06:30:12;21.10;99.90
4207;DHT22;2117;47.972;7.830;2022-08-03T06:32:41;21.10;99.90
4207;DHT22;2117;47.972;7.830;2022-08-03T06:35:08;21.10;99.90
4207;DHT22;2117;47.972;7.830;2022-08-03T06:37:50;21.00;99.90
4207;DHT22;2117;47.972;7.830;2022-08-03T06:40:17;21.10;99.90
4207;DHT22;2117;47.972;7.830;2022-08-03T06:42:43;21.10;99.90
4207;DHT22;2117;47.972;7.830;2022-08-03T06:45:10;21.10;99.90
4207;DHT22;2117;47.972;7.830;2022-08-03T06:47:36;21.20;99.90
4207;DHT22;2117;47.972;7.830;2022-08-03T06:50:06;21.20;99.90
4207;DHT22;2117;47.972;7.830;2022-08-03T06:52:34;21.30;99.90
4207;DHT22;2117;47.972;7.830;2022-08-03T06:55:00;21.30;99.90
4207;DHT22;2117;47.972;7.830;2022-08-03T06:57:25;21.40;99.90
4207;DHT22;2117;47.972;7.830;2022-08-03T06:59:51;21.40;99.90
4207;DHT22;2117;47.972;7.830;2022-08-03T07:02:17;21.50;99.90
4207;DHT22;2117;47.972;7.830;2022-08-03T07:04:44;21.50;99.90
4207;DHT22;2117;47.972;7.830;2022-08-03T07:07:09;21.60;99.90
4207;DHT22;2117;47.972;7.830;2022-08-03T07:09:35;21.70;99.90
4207;DHT22;2117;47.972;7.830;2022-08-03T07:12:00;21.80;99.90
4207;DHT22;2117;47.972;7.830;2022-08-03T07:14:26;21.90;99.90
4207;DHT22;2117;47.972;7.830;2022-08-03T07:16:52;22.00;99.90
4207;DHT22;2117;47.972;7.830;2022-08-03T07:19:18;22.00;99.90
4207;DHT22;2117;47.972;7.830;2022-08-03T07:21:43;22.20;99.90
4207;DHT22;2117;47.972;7.830;2022-08-03T07:24:10;22.20;99.90
4207;DHT22;2117;47.972;7.830;2022-08-03T07:26:35;22.30;99.90
4207;DHT22;2117;47.972;7.830;2022-08-03T07:29:01;22.40;99.90
4207;DHT22;2117;47.972;7.830;2022-08-03T07:31:26;22.50;99.90
4207;DHT22;2117;47.972;7.830;2022-08-03T07:33:52;22.50;99.90
4207;DHT22;2117;47.972;7.830;2022-08-03T07:36:18;22.70;99.90
4207;DHT22;2117;47.972;7.830;2022-08-03T07:38:43;22.80;99.90
4207;DHT22;2117;47.972;7.830;2022-08-03T07:41:09;22.80;99.90
4207;DHT22;2117;47.972;7.830;2022-08-03T07:43:34;23.00;99.90
4207;DHT22;2117;47.972;7.830;2022-08-03T07:46:00;23.00;99.90
4207;DHT22;2117;47.972;7.830;2022-08-03T07:48:25;23.10;99.90
4207;DHT22;2117;47.972;7.830;2022-08-03T07:50:51;23.20;99.90
4207;DHT22;2117;47.972;7.830;2022-08-03T07:53:17;23.20;99.90
4207;DHT22;2117;47.972;7.830;2022-08-03T07:55:43;23.40;99.90
4207;DHT22;2117;47.972;7.830;2022-08-03T07:58:09;23.40;99.90
4207;DHT22;2117;47.972;7.830;2022-08-03T08:00:44;23.50;99.90
4207;DHT22;2117;47.972;7.830;2022-08-03T08:03:10;23.50;99.90
4207;DHT22;2117;47.972;7.830;2022-08-03T08:05:36;23.70;99.90
4207;DHT22;2117;47.972;7.830;2022-08-03T08:08:02;23.70;99.90
4207;DHT22;2117;47.972;7.830;2022-08-03T08:10:29;23.80;99.90
4207;DHT22;2117;47.972;7.830;2022-08-03T08:12:55;23.80;99.90
4207;DHT22;2117;47.972;7.830;2022-08-03T08:15:21;24.00;99.90
4207;DHT22;2117;47.972;7.830;2022-08-03T08:17:51;24.00;99.90
4207;DHT22;2117;47.972;7.830;2022-08-03T08:20:20;24.10;99.90
4207;DHT22;2117;47.972;7.830;2022-08-03T08:22:46;24.20;99.90
4207;DHT22;2117;47.972;7.830;2022-08-03T08:25:12;24.20;99.90
4207;DHT22;2117;47.972;7.830;2022-08-03T08:27:46;24.20;99.90
4207;DHT22;2117;47.972;7.830;2022-08-03T08:30:13;24.30;99.90
4207;DHT22;2117;47.972;7.830;2022-08-03T08:32:39;24.40;99.90
4207;DHT22;2117;47.972;7.830;2022-08-03T08:35:06;24.50;99.90
4207;DHT22;2117;47.972;7.830;2022-08-03T08:37:32;24.60;99.90
4207;DHT22;2117;47.972;7.830;2022-08-03T08:39:58;24.80;99.90
4207;DHT22;2117;47.972;7.830;2022-08-03T08:42:24;24.80;99.90
4207;DHT22;2117;47.972;7.830;2022-08-03T08:44:49;24.90;99.90
4207;DHT22;2117;47.972;7.830;2022-08-03T08:47:18;25.00;99.90
4207;DHT22;2117;47.972;7.830;2022-08-03T08:49:44;25.10;99.90
4207;DHT22;2117;47.972;7.830;2022-08-03T08:52:12;25.20;99.90
4207;DHT22;2117;47.972;7.830;2022-08-03T08:54:39;25.30;99.90
4207;DHT22;2117;47.972;7.830;2022-08-03T08:57:06;25.30;99.90
4207;DHT22;2117;47.972;7.830;2022-08-03T08:59:33;25.30;99.90
4207;DHT22;2117;47.972;7.830;2022-08-03T09:01:59;25.50;99.90
4207;DHT22;2117;47.972;7.830;2022-08-03T09:04:27;25.60;99.90
4207;DHT22;2117;47.972;7.830;2022-08-03T09:06:53;25.70;99.20
4207;DHT22;2117;47.972;7.830;2022-08-03T09:09:19;25.80;99.00
4207;DHT22;2117;47.972;7.830;2022-08-03T09:11:44;25.90;98.50
4207;DHT22;2117;47.972;7.830;2022-08-03T09:14:12;25.90;98.50
4207;DHT22;2117;47.972;7.830;2022-08-03T09:16:38;26.00;98.00
4207;DHT22;2117;47.972;7.830;2022-08-03T09:19:19;26.10;97.80
4207;DHT22;2117;47.972;7.830;2022-08-03T09:21:44;26.20;97.60
4207;DHT22;2117;47.972;7.830;2022-08-03T09:24:10;26.40;96.70
4207;DHT22;2117;47.972;7.830;2022-08-03T09:26:36;26.50;96.10
4207;DHT22;2117;47.972;7.830;2022-08-03T09:29:05;26.70;95.30
4207;DHT22;2117;47.972;7.830;2022-08-03T09:31:40;26.80;95.60
4207;DHT22;2117;47.972;7.830;2022-08-03T09:34:09;26.90;95.60
4207;DHT22;2117;47.972;7.830;2022-08-03T09:36:35;27.00;95.00
4207;DHT22;2117;47.972;7.830;2022-08-03T09:39:22;27.20;94.00
4207;DHT22;2117;47.972;7.830;2022-08-03T09:42:09;27.30;94.10
4207;DHT22;2117;47.972;7.830;2022-08-03T09:44:36;27.40;93.20
4207;DHT22;2117;47.972;7.830;2022-08-03T09:47:03;27.60;93.00
4207;DHT22;2117;47.972;7.830;2022-08-03T09:49:29;27.60;93.10
4207;DHT22;2117;47.972;7.830;2022-08-03T09:51:55;27.70;92.60
4207;DHT22;2117;47.972;7.830;2022-08-03T09:54:28;27.80;92.10
4207;DHT22;2117;47.972;7.830;2022-08-03T09:56:54;27.80;93.00
4207;DHT22;2117;47.972;7.830;2022-08-03T09:59:28;27.90;93.20
4207;DHT22;2117;47.972;7.830;2022-08-03T10:01:55;28.10;93.00
4207;DHT22;2117;47.972;7.830;2022-08-03T10:04:22;28.20;92.60
4207;DHT22;2117;47.972;7.830;2022-08-03T10:07:07;28.30;92.60
4207;DHT22;2117;47.972;7.830;2022-08-03T10:09:34;28.50;92.80
4207;DHT22;2117;47.972;7.830;2022-08-03T10:12:07;28.50;92.20
4207;DHT22;2117;47.972;7.830;2022-08-03T10:14:33;28.60;92.20
4207;DHT22;2117;47.972;7.830;2022-08-03T10:17:00;28.70;92.00
4207;DHT22;2117;47.972;7.830;2022-08-03T10:19:26;28.80;91.80
4207;DHT22;2117;47.972;7.830;2022-08-03T10:21:58;28.90;91.70
4207;DHT22;2117;47.972;7.830;2022-08-03T10:24:29;29.00;91.40
4207;DHT22;2117;47.972;7.830;2022-08-03T10:27:06;29.10;91.00
4207;DHT22;2117;47.972;7.830;2022-08-03T10:29:41;29.20;91.20
4207;DHT22;2117;47.972;7.830;2022-08-03T10:32:58;29.40;90.80
4207;DHT22;2117;47.972;7.830;2022-08-03T10:35:06;29.50;90.60
4207;DHT22;2117;47.972;7.830;2022-08-03T10:37:40;29.80;90.60
4207;DHT22;2117;47.972;7.830;2022-08-03T10:40:07;30.00;90.40
4207;DHT22;2117;47.972;7.830;2022-08-03T10:42:34;30.30;90.00
4207;DHT22;2117;47.972;7.830;2022-08-03T10:45:06;30.50;88.60
4207;DHT22;2117;47.972;7.830;2022-08-03T10:47:34;30.40;88.10
4207;DHT22;2117;47.972;7.830;2022-08-03T10:50:00;30.50;88.20
4207;DHT22;2117;47.972;7.830;2022-08-03T10:52:26;30.70;88.30
4207;DHT22;2117;47.972;7.830;2022-08-03T10:54:52;30.80;87.20
4207;DHT22;2117;47.972;7.830;2022-08-03T10:57:47;31.20;86.80
4207;DHT22;2117;47.972;7.830;2022-08-03T11:00:15;31.60;85.30
4207;DHT22;2117;47.972;7.830;2022-08-03T11:06:14;32.00;82.80
4207;DHT22;2117;47.972;7.830;2022-08-03T11:08:43;32.10;82.30
4207;DHT22;2117;47.972;7.830;2022-08-03T11:13:56;32.60;80.60
4207;DHT22;2117;47.972;7.830;2022-08-03T11:16:22;32.70;78.00
4207;DHT22;2117;47.972;7.830;2022-08-03T11:18:58;32.70;78.70
4207;DHT22;2117;47.972;7.830;2022-08-03T11:27:23;33.50;76.50
4207;DHT22;2117;47.972;7.830;2022-08-03T11:35:14;34.10;75.70
4207;DHT22;2117;47.972;7.830;2022-08-03T11:40:46;34.60;74.30
4207;DHT22;2117;47.972;7.830;2022-08-03T11:46:06;35.30;73.80
4207;DHT22;2117;47.972;7.830;2022-08-03T11:51:02;35.40;72.50
4207;DHT22;2117;47.972;7.830;2022-08-03T11:53:28;35.60;71.90
4207;DHT22;2117;47.972;7.830;2022-08-03T11:55:58;35.60;71.40
4207;DHT22;2117;47.972;7.830;2022-08-03T11:58:24;36.00;70.30
4207;DHT22;2117;47.972;7.830;2022-08-03T12:00:50;36.10;69.90
4207;DHT22;2117;47.972;7.830;2022-08-03T12:03:19;36.00;69.50
4207;DHT22;2117;47.972;7.830;2022-08-03T12:05:52;36.00;69.40
4207;DHT22;2117;47.972;7.830;2022-08-03T12:08:30;36.30;69.50
4207;DHT22;2117;47.972;7.830;2022-08-03T12:10:58;36.10;69.10
4207;DHT22;2117;47.972;7.830;2022-08-03T12:13:24;36.40;68.30
4207;DHT22;2117;47.972;7.830;2022-08-03T12:15:55;36.80;67.20
4207;DHT22;2117;47.972;7.830;2022-08-03T12:18:22;37.20;68.00
4207;DHT22;2117;47.972;7.830;2022-08-03T12:20:50;37.50;67.60
4207;DHT22;2117;47.972;7.830;2022-08-03T12:23:16;37.80;67.80
4207;DHT22;2117;47.972;7.830;2022-08-03T12:25:43;38.20;66.70
4207;DHT22;2117;47.972;7.830;2022-08-03T12:28:13;38.60;64.00
4207;DHT22;2117;47.972;7.830;2022-08-03T12:30:42;38.70;64.90
4207;DHT22;2117;47.972;7.830;2022-08-03T12:33:19;38.80;64.10
4207;DHT22;2117;47.972;7.830;2022-08-03T12:35:50;39.00;62.40
4207;DHT22;2117;47.972;7.830;2022-08-03T12:38:25;38.80;61.90
4207;DHT22;2117;47.972;7.830;2022-08-03T12:41:03;39.00;61.80
4207;DHT22;2117;47.972;7.830;2022-08-03T12:43:29;38.90;62.60
4207;DHT22;2117;47.972;7.830;2022-08-03T12:46:12;39.10;62.00
4207;DHT22;2117;47.972;7.830;2022-08-03T12:51:27;39.20;60.00
4207;DHT22;2117;47.972;7.830;2022-08-03T12:53:55;39.20;60.00
4207;DHT22;2117;47.972;7.830;2022-08-03T12:56:21;38.30;61.00
4207;DHT22;2117;47.972;7.830;2022-08-03T12:58:47;38.70;61.10
4207;DHT22;2117;47.972;7.830;2022-08-03T13:01:15;39.10;61.30
4207;DHT22;2117;47.972;7.830;2022-08-03T13:03:44;39.30;59.60
4207;DHT22;2117;47.972;7.830;2022-08-03T13:06:12;39.20;59.80
4207;DHT22;2117;47.972;7.830;2022-08-03T13:08:39;39.10;59.50
4207;DHT22;2117;47.972;7.830;2022-08-03T13:11:22;39.20;59.50
4207;DHT22;2117;47.972;7.830;2022-08-03T13:13:49;39.40;60.00
4207;DHT22;2117;47.972;7.830;2022-08-03T13:16:15;39.70;59.80
4207;DHT22;2117;47.972;7.830;2022-08-03T13:18:41;39.00;59.60
4207;DHT22;2117;47.972;7.830;2022-08-03T13:21:06;39.30;59.70
4207;DHT22;2117;47.972;7.830;2022-08-03T13:23:32;39.50;59.00
4207;DHT22;2117;47.972;7.830;2022-08-03T13:25:58;39.60;58.90
4207;DHT22;2117;47.972;7.830;2022-08-03T13:28:23;40.10;60.00
4207;DHT22;2117;47.972;7.830;2022-08-03T13:30:49;40.50;57.50
4207;DHT22;2117;47.972;7.830;2022-08-03T13:33:15;40.80;56.90
4207;DHT22;2117;47.972;7.830;2022-08-03T13:35:40;40.90;55.60
4207;DHT22;2117;47.972;7.830;2022-08-03T13:38:06;40.90;55.30
4207;DHT22;2117;47.972;7.830;2022-08-03T13:40:31;40.90;55.20
4207;DHT22;2117;47.972;7.830;2022-08-03T13:42:58;40.80;56.70
4207;DHT22;2117;47.972;7.830;2022-08-03T13:45:24;41.00;56.00
4207;DHT22;2117;47.972;7.830;2022-08-03T13:47:51;41.10;55.50
4207;DHT22;2117;47.972;7.830;2022-08-03T13:50:17;41.20;55.60
4207;DHT22;2117;47.972;7.830;2022-08-03T13:52:43;41.50;53.40
4207;DHT22;2117;47.972;7.830;2022-08-03T13:55:10;41.40;53.70
4207;DHT22;2117;47.972;7.830;2022-08-03T13:57:36;41.60;53.20
4207;DHT22;2117;47.972;7.830;2022-08-03T14:00:03;42.00;52.10
4207;DHT22;2117;47.972;7.830;2022-08-03T14:02:28;42.20;51.80
4207;DHT22;2117;47.972;7.830;2022-08-03T14:04:54;41.90;49.40
4207;DHT22;2117;47.972;7.830;2022-08-03T14:07:20;42.00;48.30
4207;DHT22;2117;47.972;7.830;2022-08-03T14:09:45;41.20;49.40
4207;DHT22;2117;47.972;7.830;2022-08-03T14:12:11;41.30;49.00
4207;DHT22;2117;47.972;7.830;2022-08-03T14:14:36;41.20;48.90
4207;DHT22;2117;47.972;7.830;2022-08-03T14:17:02;40.80;47.90
4207;DHT22;2117;47.972;7.830;2022-08-03T14:19:28;40.80;49.10
4207;DHT22;2117;47.972;7.830;2022-08-03T14:21:53;40.80;49.30
4207;DHT22;2117;47.972;7.830;2022-08-03T14:24:19;40.90;49.50
4207;DHT22;2117;47.972;7.830;2022-08-03T14:26:44;41.20;48.40
4207;DHT22;2117;47.972;7.830;2022-08-03T14:29:10;41.50;49.50
4207;DHT22;2117;47.972;7.830;2022-08-03T14:31:36;41.50;49.30
4207;DHT22;2117;47.972;7.830;2022-08-03T14:34:02;41.70;49.20
4207;DHT22;2117;47.972;7.830;2022-08-03T14:36:27;42.30;47.70
4207;DHT22;2117;47.972;7.830;2022-08-03T14:38:53;42.30;48.10
4207;DHT22;2117;47.972;7.830;2022-08-03T14:41:19;42.50;48.20
4207;DHT22;2117;47.972;7.830;2022-08-03T14:43:44;42.50;47.50
4207;DHT22;2117;47.972;7.830;2022-08-03T14:46:10;42.00;49.20
4207;DHT22;2117;47.972;7.830;2022-08-03T14:48:35;42.10;48.40
4207;DHT22;2117;47.972;7.830;2022-08-03T14:51:03;41.70;47.40
4207;DHT22;2117;47.972;7.830;2022-08-03T14:53:28;42.10;46.70
4207;DHT22;2117;47.972;7.830;2022-08-03T14:55:54;42.10;46.50
4207;DHT22;2117;47.972;7.830;2022-08-03T14:58:21;41.90;47.10
4207;DHT22;2117;47.972;7.830;2022-08-03T15:00:48;42.30;47.90
4207;DHT22;2117;47.972;7.830;2022-08-03T15:03:14;42.60;46.70
4207;DHT22;2117;47.972;7.830;2022-08-03T15:05:40;42.70;46.40
4207;DHT22;2117;47.972;7.830;2022-08-03T15:08:06;42.90;46.60
4207;DHT22;2117;47.972;7.830;2022-08-03T15:10:31;42.70;46.80
4207;DHT22;2117;47.972;7.830;2022-08-03T15:12:57;42.90;46.70
4207;DHT22;2117;47.972;7.830;2022-08-03T15:15:22;42.90;45.40
4207;DHT22;2117;47.972;7.830;2022-08-03T15:17:48;43.10;45.70
4207;DHT22;2117;47.972;7.830;2022-08-03T15:20:14;43.20;45.80
4207;DHT22;2117;47.972;7.830;2022-08-03T15:22:39;42.90;44.20
4207;DHT22;2117;47.972;7.830;2022-08-03T15:25:06;43.10;42.80
4207;DHT22;2117;47.972;7.830;2022-08-03T15:27:31;43.30;43.20
4207;DHT22;2117;47.972;7.830;2022-08-03T15:29:57;43.30;42.10
4207;DHT22;2117;47.972;7.830;2022-08-03T15:32:22;43.40;42.50
4207;DHT22;2117;47.972;7.830;2022-08-03T15:34:48;43.40;42.30
4207;DHT22;2117;47.972;7.830;2022-08-03T15:37:14;43.40;43.90
4207;DHT22;2117;47.972;7.830;2022-08-03T15:39:40;43.40;44.20
4207;DHT22;2117;47.972;7.830;2022-08-03T15:42:05;43.20;43.50
4207;DHT22;2117;47.972;7.830;2022-08-03T15:44:31;43.10;42.30
4207;DHT22;2117;47.972;7.830;2022-08-03T15:46:57;43.10;43.30
4207;DHT22;2117;47.972;7.830;2022-08-03T15:49:22;43.30;42.60
4207;DHT22;2117;47.972;7.830;2022-08-03T15:51:48;43.40;44.10
4207;DHT22;2117;47.972;7.830;2022-08-03T15:54:13;42.90;43.20
4207;DHT22;2117;47.972;7.830;2022-08-03T15:56:39;42.80;43.90
4207;DHT22;2117;47.972;7.830;2022-08-03T15:59:09;42.40;43.10
4207;DHT22;2117;47.972;7.830;2022-08-03T16:01:35;42.30;44.10
4207;DHT22;2117;47.972;7.830;2022-08-03T16:04:00;42.40;43.80
4207;DHT22;2117;47.972;7.830;2022-08-03T16:06:26;42.30;43.50
4207;DHT22;2117;47.972;7.830;2022-08-03T16:08:52;41.90;44.40
4207;DHT22;2117;47.972;7.830;2022-08-03T16:11:17;41.40;45.60
4207;DHT22;2117;47.972;7.830;2022-08-03T16:13:43;40.20;44.80
4207;DHT22;2117;47.972;7.830;2022-08-03T16:16:08;39.70;46.40
4207;DHT22;2117;47.972;7.830;2022-08-03T16:18:34;39.30;47.80
4207;DHT22;2117;47.972;7.830;2022-08-03T16:20:59;39.00;48.00
4207;DHT22;2117;47.972;7.830;2022-08-03T16:23:25;38.50;49.10
4207;DHT22;2117;47.972;7.830;2022-08-03T16:25:51;38.00;50.20
4207;DHT22;2117;47.972;7.830;2022-08-03T16:28:17;37.60;51.10
4207;DHT22;2117;47.972;7.830;2022-08-03T16:30:44;37.60;51.70
4207;DHT22;2117;47.972;7.830;2022-08-03T16:33:11;37.40;52.50
4207;DHT22;2117;47.972;7.830;2022-08-03T16:35:37;36.80;51.20
4207;DHT22;2117;47.972;7.830;2022-08-03T16:38:03;36.30;51.10
4207;DHT22;2117;47.972;7.830;2022-08-03T16:40:29;36.10;51.10
4207;DHT22;2117;47.972;7.830;2022-08-03T16:42:55;36.10;51.80
4207;DHT22;2117;47.972;7.830;2022-08-03T16:45:21;35.90;52.30
4207;DHT22;2117;47.972;7.830;2022-08-03T16:47:46;35.50;53.20
4207;DHT22;2117;47.972;7.830;2022-08-03T16:50:12;35.40;53.10
4207;DHT22;2117;47.972;7.830;2022-08-03T16:52:38;35.10;53.40
4207;DHT22;2117;47.972;7.830;2022-08-03T16:55:04;35.00;53.80
4207;DHT22;2117;47.972;7.830;2022-08-03T16:57:30;35.00;54.90
4207;DHT22;2117;47.972;7.830;2022-08-03T16:59:56;34.90;54.00
4207;DHT22;2117;47.972;7.830;2022-08-03T17:02:24;34.80;53.90
4207;DHT22;2117;47.972;7.830;2022-08-03T17:04:50;34.70;54.60
4207;DHT22;2117;47.972;7.830;2022-08-03T17:07:17;34.60;54.40
4207;DHT22;2117;47.972;7.830;2022-08-03T17:09:43;34.50;55.20
4207;DHT22;2117;47.972;7.830;2022-08-03T17:12:09;34.40;55.40
4207;DHT22;2117;47.972;7.830;2022-08-03T17:14:34;34.30;55.40
4207;DHT22;2117;47.972;7.830;2022-08-03T17:17:03;34.20;56.10
4207;DHT22;2117;47.972;7.830;2022-08-03T17:19:30;34.20;55.90
4207;DHT22;2117;47.972;7.830;2022-08-03T17:22:11;34.20;55.90
4207;DHT22;2117;47.972;7.830;2022-08-03T17:24:49;34.10;56.90
4207;DHT22;2117;47.972;7.830;2022-08-03T17:27:18;34.00;56.70
4207;DHT22;2117;47.972;7.830;2022-08-03T17:29:46;33.90;57.20
4207;DHT22;2117;47.972;7.830;2022-08-03T17:32:16;33.70;56.80
4207;DHT22;2117;47.972;7.830;2022-08-03T17:34:44;33.70;57.60
4207;DHT22;2117;47.972;7.830;2022-08-03T17:37:14;33.60;57.30
4207;DHT22;2117;47.972;7.830;2022-08-03T17:39:41;33.60;58.90
4207;DHT22;2117;47.972;7.830;2022-08-03T17:42:11;33.50;57.40
4207;DHT22;2117;47.972;7.830;2022-08-03T17:44:37;33.40;57.90
4207;DHT22;2117;47.972;7.830;2022-08-03T17:47:04;33.40;59.00
4207;DHT22;2117;47.972;7.830;2022-08-03T17:49:30;33.30;57.90
4207;DHT22;2117;47.972;7.830;2022-08-03T17:52:01;33.20;58.20
4207;DHT22;2117;47.972;7.830;2022-08-03T17:54:57;33.10;57.80
4207;DHT22;2117;47.972;7.830;2022-08-03T18:00:09;32.90;59.80
4207;DHT22;2117;47.972;7.830;2022-08-03T18:05:55;32.80;61.30
4207;DHT22;2117;47.972;7.830;2022-08-03T18:08:28;32.50;61.00
4207;DHT22;2117;47.972;7.830;2022-08-03T18:13:33;32.40;62.90
4207;DHT22;2117;47.972;7.830;2022-08-03T18:16:03;32.30;63.30
4207;DHT22;2117;47.972;7.830;2022-08-03T18:18:37;31.90;63.40
4207;DHT22;2117;47.972;7.830;2022-08-03T18:21:05;32.00;64.90
4207;DHT22;2117;47.972;7.830;2022-08-03T18:23:31;31.80;66.10
4207;DHT22;2117;47.972;7.830;2022-08-03T18:25:58;31.70;67.20
4207;DHT22;2117;47.972;7.830;2022-08-03T18:28:25;31.50;68.10
4207;DHT22;2117;47.972;7.830;2022-08-03T18:30:52;31.40;68.90
4207;DHT22;2117;47.972;7.830;2022-08-03T18:33:17;31.40;69.10
4207;DHT22;2117;47.972;7.830;2022-08-03T18:35:43;31.20;69.60
4207;DHT22;2117;47.972;7.830;2022-08-03T18:38:12;31.10;70.30
4207;DHT22;2117;47.972;7.830;2022-08-03T18:40:39;31.00;71.00
4207;DHT22;2117;47.972;7.830;2022-08-03T18:43:06;30.90;71.20
4207;DHT22;2117;47.972;7.830;2022-08-03T18:45:35;30.80;72.10
4207;DHT22;2117;47.972;7.830;2022-08-03T18:51:04;30.60;73.60
4207;DHT22;2117;47.972;7.830;2022-08-03T18:53:44;30.40;74.20
4207;DHT22;2117;47.972;7.830;2022-08-03T19:01:43;30.10;75.30
4207;DHT22;2117;47.972;7.830;2022-08-03T19:06:58;29.90;76.10
4207;DHT22;2117;47.972;7.830;2022-08-03T19:12:04;29.60;76.20
4207;DHT22;2117;47.972;7.830;2022-08-03T19:14:37;29.40;76.20
4207;DHT22;2117;47.972;7.830;2022-08-03T19:17:07;29.30;77.30
4207;DHT22;2117;47.972;7.830;2022-08-03T19:19:33;29.20;77.80
4207;DHT22;2117;47.972;7.830;2022-08-03T19:21:59;29.10;78.10
4207;DHT22;2117;47.972;7.830;2022-08-03T19:24:25;28.90;77.80
4207;DHT22;2117;47.972;7.830;2022-08-03T19:26:52;28.80;78.60
4207;DHT22;2117;47.972;7.830;2022-08-03T19:29:21;28.70;78.40
4207;DHT22;2117;47.972;7.830;2022-08-03T19:31:48;28.60;79.10
4207;DHT22;2117;47.972;7.830;2022-08-03T19:34:16;28.60;79.20
4207;DHT22;2117;47.972;7.830;2022-08-03T19:36:42;28.50;79.50
4207;DHT22;2117;47.972;7.830;2022-08-03T19:39:08;28.30;77.60
4207;DHT22;2117;47.972;7.830;2022-08-03T19:41:37;28.20;79.20
4207;DHT22;2117;47.972;7.830;2022-08-03T19:44:05;28.20;81.80
4207;DHT22;2117;47.972;7.830;2022-08-03T19:46:42;28.10;82.20
4207;DHT22;2117;47.972;7.830;2022-08-03T19:49:14;27.90;82.30
4207;DHT22;2117;47.972;7.830;2022-08-03T19:51:40;27.90;83.10
4207;DHT22;2117;47.972;7.830;2022-08-03T19:54:08;27.80;83.70
4207;DHT22;2117;47.972;7.830;2022-08-03T19:56:34;27.70;83.50
4207;DHT22;2117;47.972;7.830;2022-08-03T19:59:06;27.50;84.10
4207;DHT22;2117;47.972;7.830;2022-08-03T20:01:32;27.50;84.50
4207;DHT22;2117;47.972;7.830;2022-08-03T20:03:58;27.40;83.90
4207;DHT22;2117;47.972;7.830;2022-08-03T20:06:23;27.30;84.10
4207;DHT22;2117;47.972;7.830;2022-08-03T20:08:49;27.10;84.30
4207;DHT22;2117;47.972;7.830;2022-08-03T20:11:15;27.10;84.80
4207;DHT22;2117;47.972;7.830;2022-08-03T20:13:44;27.00;85.20
4207;DHT22;2117;47.972;7.830;2022-08-03T20:16:10;26.90;85.90
4207;DHT22;2117;47.972;7.830;2022-08-03T20:18:36;26.80;86.30
4207;DHT22;2117;47.972;7.830;2022-08-03T20:21:10;26.80;87.20
4207;DHT22;2117;47.972;7.830;2022-08-03T20:23:40;26.70;87.60
4207;DHT22;2117;47.972;7.830;2022-08-03T20:26:07;26.60;88.40
4207;DHT22;2117;47.972;7.830;2022-08-03T20:28:49;26.50;87.80